Time;durP1;ratioP1;P1;durP2;ratioP2;P2;SDS_P1;SDS_P2;PMS_P1;PMS_P2;Temp;Humidity;BMP_temperature;BMP_pressure;BME280_temperature;BME280_humidity;BME280_pressure;Samples;Min_cycle;Max_cycle;Signal;HPM_P1;HPM_P2
2022/07/13 00:01:23;;;;;;;1.30;1.30;;;18.20;99.90;;;;;;5067479;28;20205;-52
2022/07/13 00:03:50;;;;;;;1.30;1.30;;;18.20;99.90;;;;;;5071530;28;20258;-52
2022/07/13 00:06:18;;;;;;;2.17;2.07;;;18.10;99.90;;;;;;5070635;28;20209;-53
2022/07/13 00:08:45;;;;;;;3.07;1.70;;;18.20;99.90;;;;;;5069889;28;20274;-52
2022/07/13 00:11:12;;;;;;;1.60;1.60;;;18.20;99.90;;;;;;5067847;28;20193;-52
2022/07/13 00:13:40;;;;;;;1.00;1.00;;;18.20;99.90;;;;;;5071860;28;20197;-52
2022/07/13 00:16:07;;;;;;;1.53;1.53;;;18.30;99.90;;;;;;5070585;28;20247;-52
2022/07/13 00:18:35;;;;;;;1.40;1.40;;;18.20;99.90;;;;;;5071176;28;20248;-52
2022/07/13 00:21:02;;;;;;;2.17;2.00;;;18.10;99.90;;;;;;5071568;28;20267;-52
2022/07/13 00:23:29;;;;;;;1.90;1.80;;;18.00;99.90;;;;;;5066634;28;20218;-52
2022/07/13 00:25:56;;;;;;;1.60;1.50;;;17.90;99.90;;;;;;5070362;28;20674;-52
2022/07/13 00:28:23;;;;;;;2.00;2.00;;;17.80;99.90;;;;;;5071512;28;20221;-52
2022/07/13 00:30:51;;;;;;;1.80;1.80;;;17.70;99.90;;;;;;5070163;28;20205;-52
2022/07/13 00:33:18;;;;;;;1.87;1.87;;;17.60;99.90;;;;;;5065334;28;20196;-52
2022/07/13 00:35:45;;;;;;;1.67;1.67;;;17.60;99.90;;;;;;5070140;28;20224;-52
2022/07/13 00:38:15;;;;;;;2.27;2.10;;;17.50;99.90;;;;;;5071119;28;20324;-51
2022/07/13 00:40:42;;;;;;;2.10;2.10;;;17.40;99.90;;;;;;5069125;28;20228;-52
2022/07/13 00:43:09;;;;;;;2.27;2.17;;;17.30;99.90;;;;;;5070048;28;20197;-52
2022/07/13 00:45:36;;;;;;;3.67;2.10;;;17.30;99.90;;;;;;5070171;28;20205;-52
2022/07/13 00:48:08;;;;;;;2.60;2.40;;;17.30;99.90;;;;;;5070944;28;20228;-52
2022/07/13 00:50:35;;;;;;;2.10;1.87;;;17.20;99.90;;;;;;5071274;28;20251;-51
2022/07/13 00:53:03;;;;;;;2.43;2.23;;;17.30;99.90;;;;;;5065339;28;20596;-52
2022/07/13 00:55:31;;;;;;;2.03;1.70;;;17.30;99.90;;;;;;5073413;28;20693;-52
2022/07/13 00:57:59;;;;;;;2.00;1.90;;;17.40;99.90;;;;;;5068929;28;20240;-52
2022/07/13 01:00:26;;;;;;;1.57;1.50;;;17.40;99.90;;;;;;5070834;28;20586;-51
2022/07/13 01:02:53;;;;;;;1.13;1.13;;;17.40;99.90;;;;;;5067531;28;20587;-52
2022/07/13 01:05:21;;;;;;;1.80;1.77;;;17.40;99.90;;;;;;5067203;28;20213;-50
2022/07/13 01:07:49;;;;;;;1.70;1.60;;;17.30;99.90;;;;;;5072934;28;20647;-52
2022/07/13 01:10:16;;;;;;;1.87;1.77;;;17.20;99.90;;;;;;5075090;28;20280;-52
2022/07/13 01:12:44;;;;;;;1.97;1.87;;;17.20;99.90;;;;;;5073077;28;20205;-51
2022/07/13 01:15:11;;;;;;;1.40;1.40;;;17.20;99.90;;;;;;5063415;28;20197;-52
2022/07/13 01:17:39;;;;;;;1.10;1.10;;;17.20;99.90;;;;;;5071363;28;20254;-52
2022/07/13 01:20:08;;;;;;;1.20;1.20;;;17.20;99.90;;;;;;5074380;28;20762;-51
2022/07/13 01:22:42;;;;;;;2.10;1.13;;;17.10;99.90;;;;;;5074462;28;20634;-52
2022/07/13 01:25:11;;;;;;;1.40;1.40;;;17.10;99.90;;;;;;5074999;28;20200;-51
2022/07/13 01:27:40;;;;;;;1.27;1.27;;;17.10;99.90;;;;;;5070463;28;20712;-52
2022/07/13 01:30:08;;;;;;;1.17;1.17;;;17.00;99.90;;;;;;5074516;28;20213;-51
2022/07/13 01:32:47;;;;;;;1.03;1.03;;;17.00;99.90;;;;;;5074161;28;20278;-52
2022/07/13 01:35:14;;;;;;;1.50;1.40;;;16.90;99.90;;;;;;5074920;28;20232;-52
2022/07/13 01:37:42;;;;;;;1.37;1.37;;;16.80;99.90;;;;;;5065672;28;20210;-51
2022/07/13 01:40:11;;;;;;;1.17;1.13;;;16.80;99.90;;;;;;5074255;28;20248;-52
2022/07/13 01:42:43;;;;;;;1.40;1.30;;;16.80;99.90;;;;;;5072024;28;20250;-52
2022/07/13 01:45:10;;;;;;;1.03;1.03;;;16.80;99.90;;;;;;5074654;28;20570;-52
2022/07/13 01:47:39;;;;;;;1.30;1.30;;;16.80;99.90;;;;;;5065265;28;20619;-52
2022/07/13 01:50:08;;;;;;;1.37;1.37;;;16.80;99.90;;;;;;5073671;28;20807;-52
2022/07/13 01:52:35;;;;;;;1.67;1.57;;;16.80;99.90;;;;;;5067594;28;20659;-52
2022/07/13 01:55:03;;;;;;;1.13;1.13;;;16.80;99.90;;;;;;5050194;28;20294;-52
2022/07/13 01:57:31;;;;;;;1.70;1.67;;;16.80;99.90;;;;;;5049482;28;20209;-51
2022/07/13 01:59:59;;;;;;;1.60;1.60;;;16.70;99.90;;;;;;5064982;28;20670;-52
2022/07/13 02:02:26;;;;;;;1.53;1.23;;;16.70;99.90;;;;;;5073362;28;20209;-52
2022/07/13 02:04:54;;;;;;;1.70;1.70;;;16.70;99.90;;;;;;5072871;28;20232;-52
2022/07/13 02:07:21;;;;;;;1.67;1.57;;;16.60;99.90;;;;;;5067142;28;20259;-52
2022/07/13 02:09:48;;;;;;;2.40;2.20;;;16.50;99.90;;;;;;5073757;28;20723;-52
2022/07/13 02:12:16;;;;;;;1.47;1.43;;;16.50;99.90;;;;;;5072225;28;20205;-52
2022/07/13 02:14:45;;;;;;;1.80;1.60;;;16.40;99.90;;;;;;5071397;28;20203;-52
2022/07/13 02:17:13;;;;;;;1.90;1.80;;;16.30;99.90;;;;;;5067094;28;20209;-52
2022/07/13 02:19:40;;;;;;;2.13;2.03;;;16.40;99.90;;;;;;5069444;28;20651;-52
2022/07/13 02:22:08;;;;;;;3.27;2.63;;;16.40;99.90;;;;;;5072298;28;20628;-52
2022/07/13 02:24:35;;;;;;;2.37;2.27;;;16.30;99.90;;;;;;5073675;28;20201;-52
2022/07/13 02:27:02;;;;;;;1.87;1.87;;;16.30;99.90;;;;;;5071606;28;20635;-52
2022/07/13 02:29:29;;;;;;;2.43;2.10;;;16.20;99.90;;;;;;5072577;28;20516;-52
2022/07/13 02:31:57;;;;;;;2.17;2.07;;;16.30;99.90;;;;;;5072827;28;20683;-52
2022/07/13 02:34:27;;;;;;;2.00;1.90;;;16.30;99.90;;;;;;5073613;28;20241;-52
2022/07/13 02:36:54;;;;;;;2.03;1.93;;;16.40;99.90;;;;;;5062021;28;20208;-51
2022/07/13 02:39:21;;;;;;;2.10;2.00;;;16.40;99.90;;;;;;5068342;28;20246;-51
2022/07/13 02:41:49;;;;;;;2.73;2.53;;;16.40;99.90;;;;;;5072115;28;20251;-52
2022/07/13 02:44:16;;;;;;;1.93;1.60;;;16.40;99.90;;;;;;5071183;28;20201;-52
2022/07/13 02:46:43;;;;;;;4.70;1.90;;;16.50;99.90;;;;;;5072520;28;20292;-52
2022/07/13 02:49:11;;;;;;;2.43;2.33;;;16.40;99.90;;;;;;5069462;28;20220;-52
2022/07/13 02:51:38;;;;;;;2.73;2.07;;;16.30;99.90;;;;;;5072202;28;20228;-52
2022/07/13 02:54:05;;;;;;;2.10;1.97;;;16.30;99.90;;;;;;5071542;28;20780;-52
2022/07/13 02:56:32;;;;;;;2.67;2.23;;;16.10;99.90;;;;;;5068261;28;20275;-52
2022/07/13 02:58:59;;;;;;;3.17;2.90;;;16.10;99.90;;;;;;5066439;28;20216;-52
2022/07/13 03:01:26;;;;;;;2.67;2.43;;;16.00;99.90;;;;;;5072164;28;20236;-52
2022/07/13 03:03:53;;;;;;;3.73;1.70;;;15.90;99.90;;;;;;5072203;28;20262;-52
2022/07/13 03:06:21;;;;;;;2.50;2.40;;;15.90;99.90;;;;;;5069585;28;20197;-51
2022/07/13 03:08:48;;;;;;;3.60;1.97;;;15.80;99.90;;;;;;5069531;28;20229;-52
2022/07/13 03:11:15;;;;;;;3.27;1.93;;;15.80;99.90;;;;;;5070217;28;20216;-52
2022/07/13 03:13:42;;;;;;;1.67;1.40;;;15.80;99.90;;;;;;5072124;28;20558;-52
2022/07/13 03:16:09;;;;;;;1.43;1.43;;;15.70;99.90;;;;;;5067754;28;20662;-51
2022/07/13 03:18:36;;;;;;;2.23;2.13;;;15.80;99.90;;;;;;5070468;28;20779;-52
2022/07/13 03:21:06;;;;;;;2.13;1.93;;;15.70;99.90;;;;;;5072223;28;20764;-51
2022/07/13 03:23:35;;;;;;;1.50;1.47;;;15.80;99.90;;;;;;5072275;28;20284;-52
2022/07/13 03:26:02;;;;;;;1.60;1.50;;;15.90;99.90;;;;;;5069976;28;20201;-52
2022/07/13 03:28:29;;;;;;;1.87;1.77;;;15.90;99.90;;;;;;5066291;28;20710;-51
2022/07/13 03:30:56;;;;;;;1.37;1.37;;;15.90;99.90;;;;;;5071982;28;20651;-52
2022/07/13 03:33:23;;;;;;;1.80;1.80;;;15.90;99.90;;;;;;5071583;28;20197;-51
2022/07/13 03:35:49;;;;;;;2.20;1.87;;;15.90;99.90;;;;;;5071357;28;20554;-51
2022/07/13 03:38:17;;;;;;;3.23;3.03;;;15.90;99.90;;;;;;5070443;28;20297;-51
2022/07/13 03:40:45;;;;;;;2.20;2.10;;;15.80;99.90;;;;;;5071900;28;20212;-51
2022/07/13 03:43:12;;;;;;;2.50;2.30;;;15.80;99.90;;;;;;5069824;28;20553;-51
2022/07/13 03:45:39;;;;;;;2.57;2.40;;;15.80;99.90;;;;;;5072029;28;20667;-52
2022/07/13 03:48:07;;;;;;;1.70;1.70;;;15.70;99.90;;;;;;5067569;28;20292;-52
2022/07/13 03:50:34;;;;;;;1.73;1.70;;;15.70;99.90;;;;;;5071882;28;20204;-52
2022/07/13 03:53:00;;;;;;;2.20;2.10;;;15.60;99.90;;;;;;5070453;28;20228;-51
2022/07/13 03:55:27;;;;;;;1.60;1.50;;;15.50;99.90;;;;;;5070841;28;20202;-51
2022/07/13 03:57:56;;;;;;;3.07;2.00;;;15.50;99.90;;;;;;5062876;28;20204;-51
2022/07/13 04:00:23;;;;;;;1.47;1.37;;;15.50;99.90;;;;;;5068807;28;20217;-51
2022/07/13 04:02:50;;;;;;;1.93;1.77;;;15.50;99.90;;;;;;5068414;28;20201;-52
2022/07/13 04:05:17;;;;;;;1.50;1.50;;;15.60;99.90;;;;;;5066825;28;20579;-51
2022/07/13 04:07:44;;;;;;;2.87;1.47;;;15.50;99.90;;;;;;5067501;28;20254;-51
2022/07/13 04:10:11;;;;;;;2.13;1.60;;;15.50;99.90;;;;;;5069469;28;20264;-52
2022/07/13 04:12:38;;;;;;;2.00;1.37;;;15.50;99.90;;;;;;5068161;28;20205;-51
2022/07/13 04:15:07;;;;;;;1.60;1.50;;;15.50;99.90;;;;;;5068189;28;20213;-52
2022/07/13 04:17:34;;;;;;;1.50;1.40;;;15.50;99.90;;;;;;5064627;28;20205;-51
2022/07/13 04:20:01;;;;;;;2.10;1.33;;;15.70;99.90;;;;;;5068644;28;20679;-51
2022/07/13 04:22:28;;;;;;;1.10;1.10;;;15.70;99.90;;;;;;5068774;28;20201;-52
2022/07/13 04:24:55;;;;;;;1.93;1.20;;;15.80;99.90;;;;;;5065892;28;20218;-51
2022/07/13 04:27:22;;;;;;;0.90;0.90;;;16.10;99.90;;;;;;5068646;28;20251;-52
2022/07/13 04:29:49;;;;;;;1.33;1.23;;;16.20;99.90;;;;;;5071118;28;20217;-52
2022/07/13 04:32:17;;;;;;;3.60;1.30;;;16.30;99.90;;;;;;5068084;28;20706;-52
2022/07/13 04:34:44;;;;;;;0.67;0.67;;;16.40;99.90;;;;;;5071268;28;20385;-52
2022/07/13 04:37:11;;;;;;;4.43;1.97;;;16.50;99.90;;;;;;5067654;28;20227;-51
2022/07/13 04:39:41;;;;;;;1.80;1.60;;;16.60;99.90;;;;;;5068160;28;20354;-52
2022/07/13 04:42:09;;;;;;;3.00;2.23;;;16.70;99.90;;;;;;5068539;28;20373;-51
2022/07/13 04:44:37;;;;;;;2.33;1.80;;;16.80;99.90;;;;;;5068947;28;20235;-51
2022/07/13 04:47:04;;;;;;;2.73;2.13;;;16.80;99.90;;;;;;5061916;28;20755;-52
2022/07/13 04:49:32;;;;;;;1.87;1.43;;;16.80;99.90;;;;;;5070306;28;20216;-51
2022/07/13 04:51:59;;;;;;;3.37;1.60;;;16.90;99.90;;;;;;5069759;28;20245;-52
2022/07/13 04:54:26;;;;;;;1.33;1.33;;;16.90;99.90;;;;;;5064230;28;20206;-51
2022/07/13 04:56:53;;;;;;;3.27;1.30;;;16.90;99.90;;;;;;5067795;28;20752;-52
2022/07/13 04:59:20;;;;;;;2.87;1.60;;;17.00;99.90;;;;;;5067716;28;20760;-52
2022/07/13 05:01:47;;;;;;;1.63;1.40;;;17.10;99.90;;;;;;5067745;28;20278;-51
2022/07/13 05:04:14;;;;;;;2.67;1.20;;;17.20;99.90;;;;;;5064846;28;20796;-52
2022/07/13 05:06:43;;;;;;;2.00;1.73;;;17.40;99.90;;;;;;5059136;28;20202;-52
2022/07/13 05:09:10;;;;;;;1.53;0.97;;;17.70;99.90;;;;;;5068392;28;20598;-51
2022/07/13 05:11:39;;;;;;;1.53;1.43;;;18.40;99.90;;;;;;5066709;28;20266;-51
2022/07/13 05:14:06;;;;;;;1.07;0.80;;;19.20;99.90;;;;;;5065194;28;20197;-52
2022/07/13 05:16:33;;;;;;;1.00;1.00;;;20.00;99.90;;;;;;5068675;28;20205;-51
2022/07/13 05:19:00;;;;;;;1.43;1.10;;;20.90;99.90;;;;;;5067078;28;20657;-52
2022/07/13 05:21:28;;;;;;;1.10;1.10;;;21.60;99.90;;;;;;5064656;28;20224;-52
2022/07/13 05:23:56;;;;;;;1.70;1.63;;;22.30;99.90;;;;;;5069550;28;20224;-52
2022/07/13 05:26:23;;;;;;;0.80;0.80;;;22.80;99.90;;;;;;5070598;28;20224;-52
2022/07/13 05:28:50;;;;;;;4.57;1.17;;;23.70;99.90;;;;;;5066941;28;20235;-52
2022/07/13 05:31:17;;;;;;;0.87;0.70;;;24.20;99.90;;;;;;5068247;28;20197;-52
2022/07/13 05:33:44;;;;;;;0.70;0.60;;;24.90;99.90;;;;;;5066068;28;20250;-52
2022/07/13 05:36:11;;;;;;;1.00;0.93;;;25.10;99.90;;;;;;5061686;28;20270;-51
2022/07/13 05:38:38;;;;;;;0.97;0.87;;;25.10;99.90;;;;;;5059805;28;20217;-51
2022/07/13 05:41:06;;;;;;;0.80;0.80;;;25.10;99.90;;;;;;5061032;28;20254;-51
2022/07/13 05:43:33;;;;;;;0.70;0.70;;;26.00;99.90;;;;;;5070282;28;20258;-51
2022/07/13 05:46:00;;;;;;;2.03;0.90;;;26.20;99.70;;;;;;5064379;28;20207;-51
2022/07/13 05:48:27;;;;;;;1.70;0.70;;;26.50;97.80;;;;;;5060741;28;20229;-51
2022/07/13 05:50:54;;;;;;;3.37;0.90;;;26.40;98.00;;;;;;5065252;28;20664;-51
2022/07/13 05:53:21;;;;;;;1.57;0.67;;;26.50;97.20;;;;;;5063912;28;20258;-51
2022/07/13 05:55:49;;;;;;;2.93;0.80;;;26.60;97.80;;;;;;5065337;28;20756;-51
2022/07/13 05:58:17;;;;;;;1.20;0.80;;;26.40;96.50;;;;;;5063510;28;20217;-51
2022/07/13 06:00:47;;;;;;;2.60;0.90;;;26.80;96.30;;;;;;5064477;28;20217;-51
2022/07/13 06:03:20;;;;;;;1.50;0.93;;;27.20;96.80;;;;;;5062927;28;20643;-52
2022/07/13 06:05:47;;;;;;;0.73;0.73;;;27.80;96.50;;;;;;5063044;28;20292;-52
2022/07/13 06:08:14;;;;;;;2.30;0.80;;;27.80;95.30;;;;;;5062140;28;20224;-51
2022/07/13 06:10:40;;;;;;;0.90;0.90;;;27.20;95.00;;;;;;5063182;28;20238;-51
2022/07/13 06:13:07;;;;;;;0.83;0.83;;;27.40;94.60;;;;;;5071005;28;20197;-51
2022/07/13 06:15:36;;;;;;;1.00;1.00;;;27.30;94.70;;;;;;5063501;28;20251;-51
2022/07/13 06:18:03;;;;;;;0.68;0.68;;;28.10;94.90;;;;;;5063237;28;20198;-51
2022/07/13 06:20:30;;;;;;;3.53;1.00;;;28.60;95.10;;;;;;5065574;28;20205;-52
2022/07/13 06:23:14;;;;;;;1.52;0.70;;;28.40;94.70;;;;;;5071591;28;20273;-52
2022/07/13 06:25:43;;;;;;;3.40;1.00;;;28.80;94.10;;;;;;5067932;28;20289;-52
2022/07/13 06:28:10;;;;;;;0.90;0.90;;;28.60;93.90;;;;;;5063144;28;20225;-52
2022/07/13 06:30:38;;;;;;;1.88;1.20;;;29.00;94.40;;;;;;5071568;28;20190;-53
2022/07/13 06:33:05;;;;;;;0.77;0.77;;;29.50;92.20;;;;;;5072362;28;20193;-52
2022/07/13 06:35:33;;;;;;;1.17;0.82;;;29.50;92.40;;;;;;5069920;28;20232;-52
2022/07/13 06:38:00;;;;;;;0.85;0.70;;;29.80;91.90;;;;;;5071560;28;20787;-53
2022/07/13 06:40:27;;;;;;;1.10;0.80;;;30.10;92.10;;;;;;5067945;28;20205;-53
2022/07/13 06:42:54;;;;;;;1.95;0.82;;;30.50;92.00;;;;;;5065464;28;20797;-52
2022/07/13 06:45:22;;;;;;;2.88;0.65;;;30.60;90.40;;;;;;5066509;28;20255;-53
2022/07/13 06:47:51;;;;;;;0.75;0.70;;;30.90;89.60;;;;;;5070920;28;20228;-53
2022/07/13 06:50:19;;;;;;;1.60;0.82;;;30.90;90.60;;;;;;5071158;28;20201;-53
2022/07/13 06:52:45;;;;;;;0.88;0.70;;;31.40;90.20;;;;;;5070196;28;20247;-53
2022/07/13 06:55:13;;;;;;;0.82;0.68;;;31.70;86.90;;;;;;5071236;28;20744;-54
2022/07/13 06:57:40;;;;;;;1.13;0.90;;;31.70;86.50;;;;;;5067324;28;20209;-53
2022/07/13 07:00:08;;;;;;;4.55;1.13;;;31.90;83.40;;;;;;5065944;28;20726;-53
2022/07/13 07:02:37;;;;;;;0.50;0.50;;;32.30;83.40;;;;;;5070632;28;20573;-53
2022/07/13 07:05:09;;;;;;;2.13;0.90;;;32.60;85.70;;;;;;5070733;28;20288;-54
2022/07/13 07:07:36;;;;;;;2.83;0.80;;;32.50;82.70;;;;;;5063068;28;20205;-52
2022/07/13 07:10:03;;;;;;;1.10;0.43;;;32.40;87.90;;;;;;5063309;28;20355;-53
2022/07/13 07:12:30;;;;;;;1.08;0.70;;;32.20;82.50;;;;;;5066548;28;20639;-53
2022/07/13 07:14:57;;;;;;;1.38;1.00;;;32.50;86.20;;;;;;5072725;28;20244;-52
2022/07/13 07:17:24;;;;;;;3.20;0.60;;;32.50;82.50;;;;;;5070718;28;20197;-53
2022/07/13 07:19:52;;;;;;;2.72;0.70;;;31.90;86.00;;;;;;5071630;28;20225;-52
2022/07/13 07:22:20;;;;;;;0.82;0.82;;;31.60;87.80;;;;;;5071744;28;20217;-53
2022/07/13 07:24:47;;;;;;;0.93;0.93;;;31.70;86.40;;;;;;5072721;28;20201;-52
2022/07/13 07:27:14;;;;;;;1.48;0.75;;;31.80;84.50;;;;;;5066686;28;20284;-53
2022/07/13 07:29:41;;;;;;;1.58;0.90;;;32.10;82.60;;;;;;5070457;28;20286;-53
2022/07/13 07:32:08;;;;;;;2.65;0.55;;;32.10;84.30;;;;;;5071582;28;20663;-53
2022/07/13 07:34:36;;;;;;;0.50;0.50;;;32.10;83.60;;;;;;5054168;28;20244;-53
2022/07/13 07:37:03;;;;;;;1.98;0.63;;;32.50;85.00;;;;;;5061983;28;20280;-52
2022/07/13 07:39:31;;;;;;;2.38;0.60;;;32.30;81.10;;;;;;5069157;28;20396;-52
2022/07/13 07:41:58;;;;;;;1.50;0.70;;;32.40;80.00;;;;;;5066812;28;20221;-53
2022/07/13 07:44:25;;;;;;;0.88;0.88;;;32.30;81.50;;;;;;5061188;28;20205;-53
2022/07/13 07:46:53;;;;;;;1.73;0.60;;;32.60;82.90;;;;;;5064246;28;20281;-52
2022/07/13 07:49:20;;;;;;;1.17;0.60;;;32.80;78.30;;;;;;5071769;28;20264;-52
2022/07/13 07:51:46;;;;;;;3.40;0.85;;;33.30;76.70;;;;;;5068592;28;20249;-53
2022/07/13 07:54:13;;;;;;;5.15;0.73;;;33.00;78.40;;;;;;5066371;28;20201;-53
2022/07/13 07:56:42;;;;;;;0.43;0.40;;;33.50;80.10;;;;;;5070518;28;20255;-52
2022/07/13 07:59:09;;;;;;;0.70;0.52;;;33.90;78.60;;;;;;5070672;28;20281;-52
2022/07/13 08:01:36;;;;;;;3.88;1.17;;;33.40;77.10;;;;;;5069949;28;20198;-53
2022/07/13 08:04:06;;;;;;;3.40;0.70;;;33.30;77.20;;;;;;5070533;28;20610;-52
2022/07/13 08:06:33;;;;;;;0.90;0.40;;;33.00;77.00;;;;;;5064924;28;20197;-53
2022/07/13 08:09:00;;;;;;;2.08;0.50;;;33.40;75.00;;;;;;5069373;28;20270;-52
2022/07/13 08:11:27;;;;;;;1.88;0.60;;;33.80;78.00;;;;;;5074480;28;20279;-54
2022/07/13 08:13:55;;;;;;;0.52;0.52;;;33.90;77.40;;;;;;5069882;28;20193;-53
2022/07/13 08:16:22;;;;;;;2.83;0.60;;;34.30;75.80;;;;;;5070287;28;20201;-53
2022/07/13 08:18:50;;;;;;;1.20;0.50;;;34.70;77.20;;;;;;5069806;28;20228;-52
2022/07/13 08:21:18;;;;;;;0.80;0.80;;;34.90;75.30;;;;;;5068364;28;20194;-53
2022/07/13 08:23:54;;;;;;;0.80;0.80;;;34.90;76.10;;;;;;5070043;28;20193;-52
2022/07/13 08:26:23;;;;;;;0.50;0.50;;;34.60;73.20;;;;;;5069297;28;20576;-52
2022/07/13 08:28:51;;;;;;;1.33;0.73;;;34.50;77.00;;;;;;5070559;28;20209;-53
2022/07/13 08:31:21;;;;;;;2.15;0.73;;;34.90;75.70;;;;;;5062146;28;20311;-52
2022/07/13 08:39:18;;;;;;;0.88;0.50;;;34.80;76.20;;;;;;5066157;28;20232;-56
2022/07/13 08:41:45;;;;;;;0.73;0.73;;;34.30;77.00;;;;;;5067444;28;20239;-52
2022/07/13 08:44:12;;;;;;;0.50;0.50;;;34.40;75.10;;;;;;5068664;28;20188;-52
2022/07/13 08:46:41;;;;;;;0.57;0.47;;;34.70;76.20;;;;;;5069897;28;20278;-55
2022/07/13 08:49:09;;;;;;;0.60;0.57;;;34.10;78.60;;;;;;5069173;28;20217;-54
2022/07/13 08:51:36;;;;;;;0.68;0.68;;;34.70;76.80;;;;;;5068819;28;20354;-55
2022/07/13 08:54:05;;;;;;;1.05;0.60;;;34.60;80.80;;;;;;5069825;28;20250;-54
2022/07/13 08:56:32;;;;;;;0.95;0.60;;;34.60;75.10;;;;;;5069861;28;20288;-55
2022/07/13 08:58:59;;;;;;;1.65;0.60;;;34.90;73.30;;;;;;5061266;28;20460;-54
2022/07/13 09:01:26;;;;;;;2.38;0.80;;;34.50;72.70;;;;;;5068727;28;20258;-54
2022/07/13 09:03:55;;;;;;;1.52;0.60;;;34.40;69.70;;;;;;5067642;28;20250;-54
2022/07/13 09:06:41;;;;;;;0.60;0.60;;;34.70;70.30;;;;;;5070128;28;20208;-54
2022/07/13 09:09:09;;;;;;;0.63;0.60;;;34.70;72.80;;;;;;5069711;28;20259;-54
2022/07/13 09:11:36;;;;;;;1.88;0.45;;;35.10;72.80;;;;;;5067978;28;20217;-54
2022/07/13 09:14:03;;;;;;;0.70;0.70;;;35.50;69.10;;;;;;5068551;28;20258;-54
2022/07/13 09:16:30;;;;;;;2.13;0.95;;;35.10;71.10;;;;;;5068971;28;20289;-54
2022/07/13 09:19:00;;;;;;;2.30;0.77;;;34.60;72.80;;;;;;5069498;28;20658;-54
2022/07/13 09:21:30;;;;;;;1.20;0.70;;;35.10;68.10;;;;;;5068804;28;20609;-54
2022/07/13 09:23:59;;;;;;;1.77;0.85;;;35.20;70.60;;;;;;5070938;28;20246;-51
2022/07/13 09:26:39;;;;;;;3.38;0.70;;;35.50;72.30;;;;;;5072638;28;20255;-52
2022/07/13 09:29:07;;;;;;;1.90;0.60;;;35.40;73.20;;;;;;5073313;28;20302;-52
2022/07/13 09:31:50;;;;;;;0.55;0.40;;;35.50;64.40;;;;;;5072882;28;20281;-52
2022/07/13 09:34:19;;;;;;;0.75;0.38;;;35.80;61.10;;;;;;5070222;28;20256;-52
2022/07/13 09:36:46;;;;;;;3.47;0.40;;;36.30;60.90;;;;;;5073620;28;20197;-52
2022/07/13 09:39:13;;;;;;;1.48;0.50;;;36.50;66.50;;;;;;5073745;28;20599;-52
2022/07/13 09:41:42;;;;;;;0.63;0.63;;;36.10;69.80;;;;;;5072346;28;20201;-52
2022/07/13 09:46:58;;;;;;;0.75;0.75;;;36.00;63.60;;;;;;5074309;28;20200;-52
2022/07/13 09:49:35;;;;;;;0.57;0.57;;;36.10;62.50;;;;;;5071253;28;20286;-52
2022/07/13 09:52:05;;;;;;;5.35;0.60;;;35.90;68.60;;;;;;5070175;28;20216;-52
2022/07/13 09:54:33;;;;;;;0.40;0.40;;;36.10;67.30;;;;;;5069978;28;20284;-55
2022/07/13 09:57:03;;;;;;;2.60;0.70;;;36.10;66.90;;;;;;5073593;28;20741;-52
2022/07/13 09:59:31;;;;;;;1.55;0.50;;;35.90;67.00;;;;;;5072599;28;20224;-53
2022/07/13 10:01:58;;;;;;;0.40;0.40;;;35.60;68.00;;;;;;5072864;28;20209;-53
2022/07/13 10:04:26;;;;;;;2.17;0.60;;;36.00;69.10;;;;;;5071590;28;20201;-54
2022/07/13 10:06:54;;;;;;;0.80;0.80;;;35.50;71.90;;;;;;5071974;28;20216;-55
2022/07/13 10:09:23;;;;;;;0.50;0.50;;;36.10;69.40;;;;;;5073571;28;20241;-52
2022/07/13 10:11:50;;;;;;;0.50;0.50;;;36.40;58.80;;;;;;5072363;28;20311;-53
2022/07/13 10:14:19;;;;;;;1.98;0.70;;;36.60;60.20;;;;;;5071215;28;20212;-53
2022/07/13 10:16:46;;;;;;;1.08;0.50;;;36.70;63.40;;;;;;5070223;28;20197;-54
2022/07/13 10:19:14;;;;;;;0.80;0.68;;;36.30;61.60;;;;;;5073543;28;20787;-54
2022/07/13 10:21:56;;;;;;;0.85;0.50;;;36.10;64.80;;;;;;5072923;28;20289;-54
2022/07/13 10:24:24;;;;;;;1.05;0.80;;;35.50;60.60;;;;;;5068073;28;20737;-51
2022/07/13 10:26:51;;;;;;;1.10;0.70;;;35.40;65.10;;;;;;5071688;28;20285;-52
2022/07/13 10:29:18;;;;;;;0.95;0.60;;;35.00;71.00;;;;;;5072541;28;20216;-52
2022/07/13 10:31:45;;;;;;;0.98;0.68;;;35.20;66.30;;;;;;5070084;28;20197;-52
2022/07/13 10:34:14;;;;;;;3.22;0.80;;;34.70;71.40;;;;;;5073105;28;20905;-54
2022/07/13 10:36:56;;;;;;;2.60;1.02;;;35.00;74.70;;;;;;5071317;28;20193;-54
2022/07/13 10:39:25;;;;;;;1.55;1.42;;;34.70;79.80;;;;;;5070072;28;20271;-53
2022/07/13 10:42:00;;;;;;;1.50;1.20;;;34.80;76.70;;;;;;5057158;28;20210;-51
2022/07/13 10:44:36;;;;;;;1.90;0.88;;;34.10;77.60;;;;;;5069955;28;20201;-54
2022/07/13 10:47:04;;;;;;;1.35;1.20;;;33.70;78.60;;;;;;5072052;28;20201;-53
2022/07/13 10:49:36;;;;;;;2.03;1.48;;;33.10;78.20;;;;;;5072830;28;20580;-51
2022/07/13 10:52:49;;;;;;;0.88;0.88;;;32.90;80.40;;;;;;5070011;28;20225;-52
2022/07/13 10:55:31;;;;;;;0.70;0.70;;;32.90;80.60;;;;;;5071034;28;20189;-54
2022/07/13 10:58:00;;;;;;;2.05;1.30;;;33.40;77.80;;;;;;5071738;28;20201;-51
2022/07/13 11:00:44;;;;;;;3.03;0.90;;;33.90;79.30;;;;;;5072257;28;20208;-52
2022/07/13 11:03:35;;;;;;;0.90;0.90;;;33.30;75.30;;;;;;5050826;28;20289;-52
2022/07/13 11:06:09;;;;;;;1.45;1.35;;;32.40;82.70;;;;;;5049419;28;20201;-52
2022/07/13 11:08:36;;;;;;;1.48;1.10;;;32.30;85.90;;;;;;5052694;28;20230;-51
2022/07/13 11:11:15;;;;;;;1.00;0.90;;;32.00;82.00;;;;;;5066591;28;20281;-52
2022/07/13 11:13:44;;;;;;;1.88;0.80;;;31.80;83.40;;;;;;5067273;28;20212;-52
2022/07/13 11:16:12;;;;;;;0.93;0.93;;;31.80;83.40;;;;;;5066526;28;20280;-52
2022/07/13 11:18:40;;;;;;;1.88;1.10;;;31.60;82.00;;;;;;5071084;28;20659;-52
2022/07/13 11:21:09;;;;;;;0.80;0.80;;;31.40;84.30;;;;;;5070556;28;20240;-52
2022/07/13 11:26:53;;;;;;;1.00;1.00;;;31.30;84.90;;;;;;5070628;28;20204;-53
2022/07/13 11:29:23;;;;;;;1.45;0.80;;;31.00;86.20;;;;;;5069729;28;20220;-52
2022/07/13 11:31:55;;;;;;;1.10;1.10;;;31.10;80.30;;;;;;5067551;28;20197;-52
2022/07/13 11:34:22;;;;;;;0.77;0.77;;;30.90;81.40;;;;;;5070815;28;20235;-52
2022/07/13 11:36:50;;;;;;;1.10;1.10;;;30.80;82.90;;;;;;5065946;28;20333;-52
2022/07/13 11:39:24;;;;;;;2.35;0.75;;;30.80;88.60;;;;;;5070543;28;20274;-51
2022/07/13 11:41:53;;;;;;;0.68;0.68;;;30.70;86.60;;;;;;5068801;28;20313;-52
2022/07/13 11:44:23;;;;;;;1.27;1.17;;;30.80;90.50;;;;;;5066698;28;20251;-53
2022/07/13 11:46:50;;;;;;;1.50;0.88;;;31.00;91.50;;;;;;5070454;28;20221;-55
2022/07/13 11:49:17;;;;;;;2.38;0.90;;;30.90;84.10;;;;;;5067036;28;20225;-54
2022/07/13 11:51:45;;;;;;;2.05;0.95;;;31.00;90.00;;;;;;5069935;28;20197;-55
2022/07/13 11:54:13;;;;;;;1.40;1.13;;;31.10;83.60;;;;;;5069890;28;20298;-54
2022/07/13 11:56:48;;;;;;;0.80;0.80;;;30.80;85.50;;;;;;5066754;28;20189;-54
2022/07/13 11:59:34;;;;;;;0.73;0.73;;;30.30;88.10;;;;;;5070198;28;20217;-54
2022/07/13 12:02:02;;;;;;;0.75;0.70;;;30.20;87.00;;;;;;5069470;28;20837;-53
2022/07/13 12:04:29;;;;;;;1.40;0.70;;;30.30;91.50;;;;;;5070483;28;20193;-52
2022/07/13 12:07:11;;;;;;;1.10;1.05;;;30.30;83.80;;;;;;5066783;28;20267;-54
2022/07/13 12:09:46;;;;;;;0.68;0.68;;;30.30;78.90;;;;;;5070949;28;20594;-53
2022/07/13 12:12:13;;;;;;;1.30;1.10;;;30.40;85.10;;;;;;5067489;28;20209;-55
2022/07/13 12:14:42;;;;;;;2.15;0.60;;;30.30;83.70;;;;;;5069565;28;20193;-55
2022/07/13 12:17:09;;;;;;;0.52;0.52;;;30.30;82.60;;;;;;5070100;28;20709;-55
2022/07/13 12:19:36;;;;;;;0.98;0.50;;;30.30;80.00;;;;;;5069691;28;20265;-54
2022/07/13 12:22:07;;;;;;;2.50;0.60;;;30.40;83.00;;;;;;5066069;28;20205;-54
2022/07/13 12:24:34;;;;;;;0.50;0.50;;;30.30;79.20;;;;;;5066919;28;20221;-54
2022/07/13 12:27:01;;;;;;;1.77;0.60;;;30.10;76.70;;;;;;5068250;28;20623;-54
2022/07/13 12:29:29;;;;;;;1.70;0.45;;;30.00;79.20;;;;;;5068295;28;20213;-54
2022/07/13 12:31:57;;;;;;;1.27;0.50;;;29.80;79.10;;;;;;5068961;28;20263;-52
2022/07/13 12:34:24;;;;;;;0.77;0.55;;;30.00;81.60;;;;;;5069820;28;20225;-54
2022/07/13 12:36:52;;;;;;;0.47;0.47;;;30.00;80.00;;;;;;5062674;28;20197;-54
2022/07/13 12:39:20;;;;;;;1.60;0.50;;;30.10;79.30;;;;;;5067799;28;20221;-54
2022/07/13 12:41:56;;;;;;;0.50;0.50;;;30.10;78.90;;;;;;5070891;28;20211;-54
2022/07/13 12:44:28;;;;;;;3.60;0.43;;;30.20;77.30;;;;;;5068827;28;20204;-54
2022/07/13 12:46:58;;;;;;;0.82;0.47;;;30.30;76.30;;;;;;5067146;28;20208;-54
2022/07/13 12:49:35;;;;;;;0.65;0.40;;;30.40;77.90;;;;;;5070308;28;20275;-54
2022/07/13 12:52:05;;;;;;;0.50;0.40;;;30.50;75.50;;;;;;5070660;28;20197;-54
2022/07/13 12:54:44;;;;;;;0.50;0.50;;;30.70;82.90;;;;;;5069610;28;20226;-54
2022/07/13 12:57:13;;;;;;;1.02;0.95;;;30.70;75.00;;;;;;5069001;28;20197;-54
2022/07/13 12:59:41;;;;;;;2.38;0.40;;;30.70;77.20;;;;;;5068808;28;20762;-55
2022/07/13 13:02:09;;;;;;;1.75;0.40;;;30.60;76.20;;;;;;5068770;28;20562;-53
2022/07/13 13:04:36;;;;;;;1.33;0.82;;;30.50;76.50;;;;;;5064606;28;20274;-54
2022/07/13 13:07:03;;;;;;;0.40;0.40;;;30.40;77.90;;;;;;5069550;28;20270;-52